sensor_id;sensor_type;location;lat;lon;timestamp;pressure;altitude;pressure_sealevel;temperature;humidity
11621;BME280;5866;49.094;11.900;2022-08-19T00:01:37;95533.84;;;19.94;100.00
11621;BME280;5866;49.094;11.900;2022-08-19T00:04:07;95540.28;;;19.81;100.00
11621;BME280;5866;49.094;11.900;2022-08-19T00:06:35;95542.06;;;19.76;100.00
11621;BME280;5866;49.094;11.900;2022-08-19T00:09:08;95540.75;;;20.02;100.00
11621;BME280;5866;49.094;11.900;2022-08-19T00:11:36;95542.63;;;20.01;100.00
11621;BME280;5866;49.094;11.900;2022-08-19T00:14:05;95541.25;;;19.87;100.00
11621;BME280;5866;49.094;11.900;2022-08-19T00:16:35;95533.53;;;19.67;100.00
11621;BME280;5866;49.094;11.900;2022-08-19T00:19:02;95536.44;;;19.54;100.00
11621;BME280;5866;49.094;11.900;2022-08-19T00:21:30;95538.91;;;19.67;100.00
11621;BME280;5866;49.094;11.900;2022-08-19T00:23:58;95543.81;;;19.70;100.00
11621;BME280;5866;49.094;11.900;2022-08-19T00:26:28;95561.22;;;20.03;100.00
11621;BME280;5866;49.094;11.900;2022-08-19T00:28:55;95568.56;;;20.19;100.00
11621;BME280;5866;49.094;11.900;2022-08-19T00:31:23;95576.06;;;20.96;100.00
11621;BME280;5866;49.094;11.900;2022-08-19T00:33:51;95578.75;;;21.74;100.00
11621;BME280;5866;49.094;11.900;2022-08-19T00:36:19;95584.38;;;22.06;100.00
11621;BME280;5866;49.094;11.900;2022-08-19T00:38:47;95595.38;;;22.59;100.00
11621;BME280;5866;49.094;11.900;2022-08-19T00:41:18;95599.59;;;22.72;100.00
11621;BME280;5866;49.094;11.900;2022-08-19T00:43:59;95597.00;;;22.39;100.00
11621;BME280;5866;49.094;11.900;2022-08-19T00:46:28;95590.03;;;22.04;100.00
11621;BME280;5866;49.094;11.900;2022-08-19T00:48:56;95594.38;;;21.56;100.00
11621;BME280;5866;49.094;11.900;2022-08-19T00:51:24;95602.00;;;21.59;100.00
11621;BME280;5866;49.094;11.900;2022-08-19T00:53:54;95597.69;;;21.13;100.00
11621;BME280;5866;49.094;11.900;2022-08-19T00:56:22;95587.25;;;21.33;100.00
11621;BME280;5866;49.094;11.900;2022-08-19T00:58:50;95586.47;;;21.82;100.00
11621;BME280;5866;49.094;11.900;2022-08-19T01:01:19;95585.38;;;22.00;100.00
11621;BME280;5866;49.094;11.900;2022-08-19T01:03:47;95587.34;;;22.48;100.00
11621;BME280;5866;49.094;11.900;2022-08-19T01:06:24;95590.28;;;22.84;100.00
11621;BME280;5866;49.094;11.900;2022-08-19T01:08:51;95593.56;;;23.40;100.00
11621;BME280;5866;49.094;11.900;2022-08-19T01:11:19;95597.03;;;23.62;100.00
11621;BME280;5866;49.094;11.900;2022-08-19T01:13:47;95605.25;;;22.70;100.00
11621;BME280;5866;49.094;11.900;2022-08-19T01:16:18;95597.09;;;22.92;100.00
11621;BME280;5866;49.094;11.900;2022-08-19T01:18:47;95612.38;;;22.38;100.00
11621;BME280;5866;49.094;11.900;2022-08-19T01:21:20;95620.31;;;21.40;100.00
11621;BME280;5866;49.094;11.900;2022-08-19T01:23:50;95617.34;;;21.75;100.00
11621;BME280;5866;49.094;11.900;2022-08-19T01:26:20;95615.47;;;21.42;100.00
11621;BME280;5866;49.094;11.900;2022-08-19T01:28:51;95606.88;;;21.62;100.00
11621;BME280;5866;49.094;11.900;2022-08-19T01:31:28;95605.72;;;21.24;100.00
11621;BME280;5866;49.094;11.900;2022-08-19T01:33:58;95604.41;;;21.27;100.00
11621;BME280;5866;49.094;11.900;2022-08-19T01:36:30;95595.56;;;20.87;100.00
11621;BME280;5866;49.094;11.900;2022-08-19T01:39:01;95603.78;;;20.80;100.00
11621;BME280;5866;49.094;11.900;2022-08-19T01:41:30;95619.91;;;20.64;100.00
11621;BME280;5866;49.094;11.900;2022-08-19T01:43:57;95621.88;;;20.68;100.00
11621;BME280;5866;49.094;11.900;2022-08-19T01:46:46;95629.88;;;20.63;100.00
11621;BME280;5866;49.094;11.900;2022-08-19T01:49:15;95623.66;;;20.63;100.00
11621;BME280;5866;49.094;11.900;2022-08-19T01:51:43;95622.41;;;20.53;100.00
11621;BME280;5866;49.094;11.900;2022-08-19T01:54:14;95614.88;;;20.67;100.00
11621;BME280;5866;49.094;11.900;2022-08-19T01:56:58;95614.56;;;20.80;100.00
11621;BME280;5866;49.094;11.900;2022-08-19T01:59:27;95611.47;;;20.60;100.00
11621;BME280;5866;49.094;11.900;2022-08-19T02:01:55;95616.91;;;20.48;100.00
11621;BME280;5866;49.094;11.900;2022-08-19T02:04:22;95613.91;;;20.22;100.00
11621;BME280;5866;49.094;11.900;2022-08-19T02:06:51;95616.97;;;20.25;100.00
11621;BME280;5866;49.094;11.900;2022-08-19T02:09:20;95606.28;;;20.19;100.00
11621;BME280;5866;49.094;11.900;2022-08-19T02:11:48;95609.22;;;20.06;100.00
11621;BME280;5866;49.094;11.900;2022-08-19T02:14:15;95615.06;;;20.03;100.00
11621;BME280;5866;49.094;11.900;2022-08-19T02:16:43;95605.94;;;20.04;100.00
11621;BME280;5866;49.094;11.900;2022-08-19T02:19:10;95605.59;;;20.00;100.00
11621;BME280;5866;49.094;11.900;2022-08-19T02:21:38;95600.19;;;20.35;100.00
11621;BME280;5866;49.094;11.900;2022-08-19T02:24:06;95606.59;;;20.45;100.00
11621;BME280;5866;49.094;11.900;2022-08-19T02:26:34;95610.75;;;20.25;100.00
11621;BME280;5866;49.094;11.900;2022-08-19T02:29:03;95613.44;;;20.25;100.00
11621;BME280;5866;49.094;11.900;2022-08-19T02:31:30;95608.13;;;20.41;100.00
11621;BME280;5866;49.094;11.900;2022-08-19T02:33:58;95589.66;;;20.22;100.00
11621;BME280;5866;49.094;11.900;2022-08-19T02:36:26;95586.75;;;20.23;100.00
11621;BME280;5866;49.094;11.900;2022-08-19T02:38:55;95589.66;;;20.10;100.00
11621;BME280;5866;49.094;11.900;2022-08-19T02:41:24;95585.16;;;20.50;100.00
11621;BME280;5866;49.094;11.900;2022-08-19T02:43:54;95583.66;;;21.11;100.00
11621;BME280;5866;49.094;11.900;2022-08-19T02:46:44;95586.63;;;22.14;100.00
11621;BME280;5866;49.094;11.900;2022-08-19T02:49:12;95596.03;;;22.28;100.00
11621;BME280;5866;49.094;11.900;2022-08-19T02:51:44;95600.38;;;22.29;100.00
11621;BME280;5866;49.094;11.900;2022-08-19T02:54:13;95598.19;;;22.26;100.00
11621;BME280;5866;49.094;11.900;2022-08-19T02:56:42;95602.16;;;21.85;100.00
11621;BME280;5866;49.094;11.900;2022-08-19T02:59:11;95603.97;;;21.96;100.00
11621;BME280;5866;49.094;11.900;2022-08-19T03:01:40;95601.00;;;21.65;100.00
11621;BME280;5866;49.094;11.900;2022-08-19T03:04:10;95597.34;;;21.09;100.00
11621;BME280;5866;49.094;11.900;2022-08-19T03:06:40;95592.19;;;21.36;100.00
11621;BME280;5866;49.094;11.900;2022-08-19T03:09:08;95604.13;;;21.73;100.00
11621;BME280;5866;49.094;11.900;2022-08-19T03:11:36;95599.16;;;21.82;100.00
11621;BME280;5866;49.094;11.900;2022-08-19T03:14:07;95587.66;;;21.91;100.00
11621;BME280;5866;49.094;11.900;2022-08-19T03:16:41;95579.56;;;21.42;100.00
11621;BME280;5866;49.094;11.900;2022-08-19T03:19:09;95587.09;;;21.73;100.00
11621;BME280;5866;49.094;11.900;2022-08-19T03:21:37;95601.56;;;21.67;100.00
11621;BME280;5866;49.094;11.900;2022-08-19T03:24:07;95601.00;;;21.81;100.00
11621;BME280;5866;49.094;11.900;2022-08-19T03:26:38;95605.94;;;21.84;100.00
11621;BME280;5866;49.094;11.900;2022-08-19T03:29:06;95605.94;;;21.68;100.00
11621;BME280;5866;49.094;11.900;2022-08-19T03:31:39;95604.28;;;22.38;100.00
11621;BME280;5866;49.094;11.900;2022-08-19T03:34:20;95606.47;;;22.41;100.00
11621;BME280;5866;49.094;11.900;2022-08-19T03:36:48;95610.03;;;22.63;100.00
11621;BME280;5866;49.094;11.900;2022-08-19T03:39:15;95636.44;;;23.00;100.00
11621;BME280;5866;49.094;11.900;2022-08-19T03:41:45;95634.28;;;23.02;100.00
11621;BME280;5866;49.094;11.900;2022-08-19T03:44:16;95637.94;;;23.12;100.00
11621;BME280;5866;49.094;11.900;2022-08-19T03:46:46;95633.47;;;23.28;100.00
11621;BME280;5866;49.094;11.900;2022-08-19T03:49:15;95631.84;;;23.27;100.00
11621;BME280;5866;49.094;11.900;2022-08-19T03:51:46;95623.06;;;23.15;100.00
11621;BME280;5866;49.094;11.900;2022-08-19T03:54:16;95623.41;;;22.75;100.00
11621;BME280;5866;49.094;11.900;2022-08-19T03:56:45;95628.25;;;22.95;100.00
11621;BME280;5866;49.094;11.900;2022-08-19T03:59:16;95638.78;;;23.18;100.00
11621;BME280;5866;49.094;11.900;2022-08-19T04:01:46;95634.22;;;22.97;100.00
11621;BME280;5866;49.094;11.900;2022-08-19T04:04:14;95646.63;;;22.92;100.00
11621;BME280;5866;49.094;11.900;2022-08-19T04:06:43;95637.28;;;23.05;100.00
11621;BME280;5866;49.094;11.900;2022-08-19T04:09:11;95636.66;;;23.20;100.00
11621;BME280;5866;49.094;11.900;2022-08-19T04:11:41;95633.03;;;23.36;100.00
11621;BME280;5866;49.094;11.900;2022-08-19T04:14:12;95646.16;;;23.49;100.00
11621;BME280;5866;49.094;11.900;2022-08-19T04:16:40;95653.22;;;23.50;100.00
11621;BME280;5866;49.094;11.900;2022-08-19T04:19:10;95663.78;;;23.25;100.00
11621;BME280;5866;49.094;11.900;2022-08-19T04:21:38;95673.28;;;23.06;100.00
11621;BME280;5866;49.094;11.900;2022-08-19T04:24:06;95678.81;;;22.94;100.00
11621;BME280;5866;49.094;11.900;2022-08-19T04:26:35;95673.03;;;23.07;100.00
11621;BME280;5866;49.094;11.900;2022-08-19T04:29:06;95672.28;;;23.12;100.00
11621;BME280;5866;49.094;11.900;2022-08-19T04:31:39;95681.25;;;23.17;100.00
11621;BME280;5866;49.094;11.900;2022-08-19T04:34:10;95684.84;;;23.23;100.00
11621;BME280;5866;49.094;11.900;2022-08-19T04:36:41;95696.28;;;23.30;100.00
11621;BME280;5866;49.094;11.900;2022-08-19T04:39:14;95701.22;;;23.33;100.00
11621;BME280;5866;49.094;11.900;2022-08-19T04:41:42;95702.84;;;23.34;100.00
11621;BME280;5866;49.094;11.900;2022-08-19T04:44:27;95715.44;;;23.45;100.00
11621;BME280;5866;49.094;11.900;2022-08-19T04:46:58;95709.56;;;23.31;100.00
11621;BME280;5866;49.094;11.900;2022-08-19T04:49:28;95696.13;;;23.36;100.00
11621;BME280;5866;49.094;11.900;2022-08-19T04:51:56;95692.34;;;23.37;100.00
11621;BME280;5866;49.094;11.900;2022-08-19T04:54:24;95683.88;;;23.55;100.00
11621;BME280;5866;49.094;11.900;2022-08-19T04:57:05;95684.72;;;23.61;100.00
11621;BME280;5866;49.094;11.900;2022-08-19T04:59:37;95685.72;;;23.50;100.00
11621;BME280;5866;49.094;11.900;2022-08-19T05:02:06;95697.91;;;23.79;100.00
11621;BME280;5866;49.094;11.900;2022-08-19T05:04:36;95705.50;;;23.82;100.00
11621;BME280;5866;49.094;11.900;2022-08-19T05:07:06;95718.06;;;23.93;100.00
11621;BME280;5866;49.094;11.900;2022-08-19T05:09:34;95714.16;;;24.06;100.00
11621;BME280;5866;49.094;11.900;2022-08-19T05:12:21;95714.50;;;24.14;100.00
11621;BME280;5866;49.094;11.900;2022-08-19T05:14:55;95713.38;;;24.10;100.00
11621;BME280;5866;49.094;11.900;2022-08-19T05:17:23;95702.00;;;24.13;100.00
11621;BME280;5866;49.094;11.900;2022-08-19T05:19:56;95711.78;;;24.14;100.00
11621;BME280;5866;49.094;11.900;2022-08-19T05:22:42;95717.78;;;24.16;100.00
11621;BME280;5866;49.094;11.900;2022-08-19T05:25:12;95726.41;;;23.87;100.00
11621;BME280;5866;49.094;11.900;2022-08-19T05:27:41;95733.34;;;23.73;100.00
11621;BME280;5866;49.094;11.900;2022-08-19T05:30:10;95733.53;;;23.66;100.00
11621;BME280;5866;49.094;11.900;2022-08-19T05:32:38;95732.03;;;23.80;100.00
11621;BME280;5866;49.094;11.900;2022-08-19T05:35:08;95736.75;;;23.90;100.00
11621;BME280;5866;49.094;11.900;2022-08-19T05:37:36;95740.78;;;23.87;100.00
11621;BME280;5866;49.094;11.900;2022-08-19T05:40:06;95735.47;;;23.97;100.00
11621;BME280;5866;49.094;11.900;2022-08-19T05:42:34;95737.34;;;23.22;100.00
11621;BME280;5866;49.094;11.900;2022-08-19T05:45:02;95729.25;;;22.83;100.00
11621;BME280;5866;49.094;11.900;2022-08-19T05:47:30;95736.53;;;22.45;100.00
11621;BME280;5866;49.094;11.900;2022-08-19T05:49:59;95732.94;;;22.06;100.00
11621;BME280;5866;49.094;11.900;2022-08-19T05:52:31;95727.69;;;21.83;100.00
11621;BME280;5866;49.094;11.900;2022-08-19T05:54:59;95722.28;;;21.83;100.00
11621;BME280;5866;49.094;11.900;2022-08-19T05:57:27;95721.72;;;22.31;100.00
11621;BME280;5866;49.094;11.900;2022-08-19T05:59:55;95726.88;;;21.82;100.00
11621;BME280;5866;49.094;11.900;2022-08-19T06:02:24;95729.66;;;22.04;100.00
11621;BME280;5866;49.094;11.900;2022-08-19T06:04:52;95733.72;;;21.45;100.00
11621;BME280;5866;49.094;11.900;2022-08-19T06:07:19;95727.56;;;21.78;100.00
11621;BME280;5866;49.094;11.900;2022-08-19T06:09:48;95727.41;;;21.40;100.00
11621;BME280;5866;49.094;11.900;2022-08-19T06:12:27;95726.63;;;21.27;100.00
11621;BME280;5866;49.094;11.900;2022-08-19T06:14:58;95722.22;;;21.66;100.00
11621;BME280;5866;49.094;11.900;2022-08-19T06:17:27;95716.66;;;21.56;100.00
11621;BME280;5866;49.094;11.900;2022-08-19T06:19:57;95723.72;;;21.74;100.00
11621;BME280;5866;49.094;11.900;2022-08-19T06:22:25;95721.56;;;21.31;100.00
11621;BME280;5866;49.094;11.900;2022-08-19T06:24:55;95716.66;;;21.56;100.00
11621;BME280;5866;49.094;11.900;2022-08-19T06:27:23;95713.53;;;21.19;100.00
11621;BME280;5866;49.094;11.900;2022-08-19T06:29:50;95708.88;;;21.15;100.00
11621;BME280;5866;49.094;11.900;2022-08-19T06:32:18;95715.44;;;20.96;100.00
11621;BME280;5866;49.094;11.900;2022-08-19T06:34:46;95715.09;;;21.15;100.00
11621;BME280;5866;49.094;11.900;2022-08-19T06:37:13;95708.69;;;21.50;100.00
11621;BME280;5866;49.094;11.900;2022-08-19T06:39:43;95718.69;;;21.94;100.00
11621;BME280;5866;49.094;11.900;2022-08-19T06:42:12;95719.13;;;21.74;100.00
11621;BME280;5866;49.094;11.900;2022-08-19T06:44:45;95725.09;;;22.04;100.00
11621;BME280;5866;49.094;11.900;2022-08-19T06:47:16;95735.88;;;22.38;100.00
11621;BME280;5866;49.094;11.900;2022-08-19T06:49:53;95737.50;;;22.55;100.00
11621;BME280;5866;49.094;11.900;2022-08-19T06:52:28;95746.34;;;22.51;100.00
11621;BME280;5866;49.094;11.900;2022-08-19T06:54:59;95745.13;;;21.35;100.00
11621;BME280;5866;49.094;11.900;2022-08-19T06:57:33;95752.13;;;21.48;100.00
11621;BME280;5866;49.094;11.900;2022-08-19T07:00:02;95756.44;;;21.77;100.00
11621;BME280;5866;49.094;11.900;2022-08-19T07:02:30;95765.03;;;22.19;100.00
11621;BME280;5866;49.094;11.900;2022-08-19T07:04:57;95761.56;;;22.57;100.00
11621;BME280;5866;49.094;11.900;2022-08-19T07:07:27;95759.63;;;23.29;100.00
11621;BME280;5866;49.094;11.900;2022-08-19T07:09:55;95745.69;;;22.99;100.00
11621;BME280;5866;49.094;11.900;2022-08-19T07:12:26;95738.34;;;22.23;100.00
11621;BME280;5866;49.094;11.900;2022-08-19T07:14:57;95747.41;;;23.05;100.00
11621;BME280;5866;49.094;11.900;2022-08-19T07:17:25;95750.94;;;22.17;100.00
11621;BME280;5866;49.094;11.900;2022-08-19T07:19:53;95745.19;;;22.80;100.00
11621;BME280;5866;49.094;11.900;2022-08-19T07:22:21;95734.09;;;22.43;100.00
11621;BME280;5866;49.094;11.900;2022-08-19T07:24:50;95722.31;;;22.16;100.00
11621;BME280;5866;49.094;11.900;2022-08-19T07:27:18;95721.97;;;22.29;100.00
11621;BME280;5866;49.094;11.900;2022-08-19T07:29:51;95714.75;;;22.51;100.00
11621;BME280;5866;49.094;11.900;2022-08-19T07:32:24;95721.81;;;22.02;100.00
11621;BME280;5866;49.094;11.900;2022-08-19T07:34:53;95712.81;;;21.97;100.00
11621;BME280;5866;49.094;11.900;2022-08-19T07:37:22;95716.91;;;22.16;100.00
11621;BME280;5866;49.094;11.900;2022-08-19T07:39:51;95732.13;;;22.94;100.00
11621;BME280;5866;49.094;11.900;2022-08-19T07:42:19;95738.84;;;23.56;100.00
11621;BME280;5866;49.094;11.900;2022-08-19T07:44:47;95747.09;;;23.01;100.00
11621;BME280;5866;49.094;11.900;2022-08-19T07:47:16;95749.56;;;22.31;100.00
11621;BME280;5866;49.094;11.900;2022-08-19T07:50:08;95749.41;;;22.92;100.00
11621;BME280;5866;49.094;11.900;2022-08-19T07:52:37;95745.00;;;23.30;100.00
11621;BME280;5866;49.094;11.900;2022-08-19T07:55:07;95740.91;;;23.71;100.00
11621;BME280;5866;49.094;11.900;2022-08-19T07:57:56;95743.25;;;23.62;100.00
11621;BME280;5866;49.094;11.900;2022-08-19T08:00:24;95744.13;;;23.99;100.00
11621;BME280;5866;49.094;11.900;2022-08-19T08:02:52;95748.56;;;24.37;100.00
11621;BME280;5866;49.094;11.900;2022-08-19T08:05:23;95741.53;;;24.41;100.00
11621;BME280;5866;49.094;11.900;2022-08-19T08:08:09;95747.59;;;24.16;100.00
11621;BME280;5866;49.094;11.900;2022-08-19T08:11:13;95753.34;;;23.72;100.00
11621;BME280;5866;49.094;11.900;2022-08-19T08:13:43;95745.16;;;23.93;100.00
11621;BME280;5866;49.094;11.900;2022-08-19T08:16:10;95744.63;;;23.00;100.00
11621;BME280;5866;49.094;11.900;2022-08-19T08:18:40;95740.94;;;22.51;100.00
11621;BME280;5866;49.094;11.900;2022-08-19T08:21:19;95738.66;;;22.59;100.00
11621;BME280;5866;49.094;11.900;2022-08-19T08:23:47;95747.19;;;22.68;100.00
11621;BME280;5866;49.094;11.900;2022-08-19T08:26:17;95742.41;;;22.42;100.00
11621;BME280;5866;49.094;11.900;2022-08-19T08:28:44;95739.66;;;22.37;100.00
11621;BME280;5866;49.094;11.900;2022-08-19T08:31:15;95741.03;;;22.56;100.00
11621;BME280;5866;49.094;11.900;2022-08-19T08:33:42;95739.63;;;22.70;100.00
11621;BME280;5866;49.094;11.900;2022-08-19T08:36:11;95748.56;;;22.70;100.00
11621;BME280;5866;49.094;11.900;2022-08-19T08:38:42;95740.94;;;22.67;100.00
11621;BME280;5866;49.094;11.900;2022-08-19T08:41:18;95740.78;;;22.57;100.00
11621;BME280;5866;49.094;11.900;2022-08-19T08:43:48;95729.31;;;22.34;100.00
11621;BME280;5866;49.094;11.900;2022-08-19T08:46:22;95725.78;;;21.39;100.00
11621;BME280;5866;49.094;11.900;2022-08-19T08:49:02;95720.22;;;21.45;100.00
11621;BME280;5866;49.094;11.900;2022-08-19T08:51:34;95707.81;;;22.05;100.00
11621;BME280;5866;49.094;11.900;2022-08-19T08:54:05;95723.63;;;22.13;100.00
11621;BME280;5866;49.094;11.900;2022-08-19T08:56:37;95723.94;;;22.17;100.00
11621;BME280;5866;49.094;11.900;2022-08-19T08:59:15;95727.94;;;21.98;100.00
11621;BME280;5866;49.094;11.900;2022-08-19T09:01:44;95722.47;;;21.93;100.00
11621;BME280;5866;49.094;11.900;2022-08-19T09:04:12;95711.81;;;21.86;100.00
11621;BME280;5866;49.094;11.900;2022-08-19T09:06:46;95701.34;;;21.90;100.00
11621;BME280;5866;49.094;11.900;2022-08-19T09:09:20;95695.63;;;21.86;100.00
11621;BME280;5866;49.094;11.900;2022-08-19T09:11:58;95699.22;;;21.92;100.00
11621;BME280;5866;49.094;11.900;2022-08-19T09:14:37;95707.72;;;21.84;100.00
11621;BME280;5866;49.094;11.900;2022-08-19T09:17:18;95702.16;;;22.07;100.00
11621;BME280;5866;49.094;11.900;2022-08-19T09:19:50;95715.56;;;22.35;100.00
11621;BME280;5866;49.094;11.900;2022-08-19T09:22:18;95714.13;;;22.82;100.00
11621;BME280;5866;49.094;11.900;2022-08-19T09:24:54;95710.13;;;22.52;100.00
11621;BME280;5866;49.094;11.900;2022-08-19T09:27:23;95724.81;;;23.16;100.00
11621;BME280;5866;49.094;11.900;2022-08-19T09:30:12;95726.75;;;23.95;100.00
11621;BME280;5866;49.094;11.900;2022-08-19T09:32:41;95724.66;;;23.27;100.00
11621;BME280;5866;49.094;11.900;2022-08-19T09:35:09;95718.66;;;23.20;100.00
11621;BME280;5866;49.094;11.900;2022-08-19T09:37:37;95717.56;;;23.43;100.00
11621;BME280;5866;49.094;11.900;2022-08-19T09:40:08;95720.91;;;23.28;100.00
11621;BME280;5866;49.094;11.900;2022-08-19T09:42:37;95723.13;;;23.10;100.00
11621;BME280;5866;49.094;11.900;2022-08-19T09:45:21;95730.41;;;23.09;100.00
11621;BME280;5866;49.094;11.900;2022-08-19T09:47:50;95736.78;;;22.43;100.00
11621;BME280;5866;49.094;11.900;2022-08-19T09:50:21;95746.94;;;22.36;100.00
11621;BME280;5866;49.094;11.900;2022-08-19T09:52:49;95742.13;;;21.77;100.00
11621;BME280;5866;49.094;11.900;2022-08-19T09:55:25;95748.31;;;21.89;100.00
11621;BME280;5866;49.094;11.900;2022-08-19T09:57:59;95747.53;;;22.05;100.00
11621;BME280;5866;49.094;11.900;2022-08-19T10:00:26;95751.94;;;21.94;100.00
11621;BME280;5866;49.094;11.900;2022-08-19T10:02:54;95763.34;;;21.85;100.00
11621;BME280;5866;49.094;11.900;2022-08-19T10:05:22;95756.03;;;22.30;100.00
11621;BME280;5866;49.094;11.900;2022-08-19T10:08:08;95768.72;;;22.13;100.00
11621;BME280;5866;49.094;11.900;2022-08-19T10:10:40;95774.94;;;22.63;100.00
11621;BME280;5866;49.094;11.900;2022-08-19T10:13:12;95777.09;;;22.61;100.00
11621;BME280;5866;49.094;11.900;2022-08-19T10:15:40;95781.06;;;22.75;100.00
11621;BME280;5866;49.094;11.900;2022-08-19T10:18:14;95776.97;;;22.56;100.00
11621;BME280;5866;49.094;11.900;2022-08-19T10:20:42;95778.13;;;22.27;100.00
11621;BME280;5866;49.094;11.900;2022-08-19T10:23:17;95785.16;;;21.95;100.00
11621;BME280;5866;49.094;11.900;2022-08-19T10:25:46;95781.41;;;22.62;100.00
11621;BME280;5866;49.094;11.900;2022-08-19T10:28:14;95779.28;;;22.81;100.00
11621;BME280;5866;49.094;11.900;2022-08-19T10:30:45;95766.19;;;22.95;100.00
11621;BME280;5866;49.094;11.900;2022-08-19T10:33:13;95769.75;;;23.38;100.00
11621;BME280;5866;49.094;11.900;2022-08-19T10:36:02;95776.03;;;23.44;100.00
11621;BME280;5866;49.094;11.900;2022-08-19T10:38:30;95771.75;;;23.05;100.00
11621;BME280;5866;49.094;11.900;2022-08-19T10:41:06;95772.16;;;22.58;100.00
11621;BME280;5866;49.094;11.900;2022-08-19T10:43:34;95768.78;;;22.84;100.00
11621;BME280;5866;49.094;11.900;2022-08-19T10:46:04;95760.88;;;22.61;100.00
11621;BME280;5866;49.094;11.900;2022-08-19T10:48:42;95757.16;;;22.67;100.00
11621;BME280;5866;49.094;11.900;2022-08-19T10:51:11;95755.38;;;22.95;100.00
11621;BME280;5866;49.094;11.900;2022-08-19T10:53:57;95753.81;;;22.99;100.00
11621;BME280;5866;49.094;11.900;2022-08-19T10:56:27;95761.25;;;23.73;100.00
11621;BME280;5866;49.094;11.900;2022-08-19T10:59:13;95764.59;;;23.58;100.00
11621;BME280;5866;49.094;11.900;2022-08-19T11:01:42;95761.38;;;23.40;100.00
11621;BME280;5866;49.094;11.900;2022-08-19T11:04:11;95761.13;;;22.43;100.00
11621;BME280;5866;49.094;11.900;2022-08-19T11:06:40;95751.19;;;22.49;100.00
11621;BME280;5866;49.094;11.900;2022-08-19T11:09:09;95757.66;;;22.81;100.00
11621;BME280;5866;49.094;11.900;2022-08-19T11:11:39;95759.03;;;23.05;100.00
11621;BME280;5866;49.094;11.900;2022-08-19T11:14:08;95743.25;;;23.19;100.00
11621;BME280;5866;49.094;11.900;2022-08-19T11:16:36;95737.81;;;23.35;100.00
11621;BME280;5866;49.094;11.900;2022-08-19T11:19:07;95734.31;;;22.97;100.00
11621;BME280;5866;49.094;11.900;2022-08-19T11:21:37;95742.63;;;23.12;100.00
11621;BME280;5866;49.094;11.900;2022-08-19T11:24:07;95749.53;;;22.81;100.00
11621;BME280;5866;49.094;11.900;2022-08-19T11:26:39;95748.50;;;22.16;100.00
11621;BME280;5866;49.094;11.900;2022-08-19T11:29:08;95745.44;;;21.95;100.00
11621;BME280;5866;49.094;11.900;2022-08-19T11:31:40;95752.75;;;22.45;100.00
11621;BME280;5866;49.094;11.900;2022-08-19T11:34:11;95743.06;;;23.04;100.00
11621;BME280;5866;49.094;11.900;2022-08-19T11:36:41;95742.50;;;23.02;100.00
11621;BME280;5866;49.094;11.900;2022-08-19T11:39:11;95735.31;;;22.90;100.00
11621;BME280;5866;49.094;11.900;2022-08-19T11:41:41;95740.50;;;22.75;100.00
11621;BME280;5866;49.094;11.900;2022-08-19T11:44:08;95748.31;;;22.72;100.00
11621;BME280;5866;49.094;11.900;2022-08-19T11:46:37;95740.97;;;23.11;100.00
11621;BME280;5866;49.094;11.900;2022-08-19T11:49:05;95744.78;;;22.71;100.00
11621;BME280;5866;49.094;11.900;2022-08-19T11:51:40;95747.13;;;22.84;100.00
11621;BME280;5866;49.094;11.900;2022-08-19T11:54:10;95736.75;;;23.20;100.00
11621;BME280;5866;49.094;11.900;2022-08-19T11:56:40;95737.31;;;22.78;100.00
11621;BME280;5866;49.094;11.900;2022-08-19T11:59:08;95730.06;;;22.29;100.00
11621;BME280;5866;49.094;11.900;2022-08-19T12:01:40;95728.06;;;22.41;100.00
11621;BME280;5866;49.094;11.900;2022-08-19T12:04:09;95716.91;;;22.71;100.00
11621;BME280;5866;49.094;11.900;2022-08-19T12:06:39;95720.56;;;22.60;100.00
11621;BME280;5866;49.094;11.900;2022-08-19T12:09:09;95718.50;;;22.67;100.00
11621;BME280;5866;49.094;11.900;2022-08-19T12:11:38;95715.88;;;22.55;100.00
11621;BME280;5866;49.094;11.900;2022-08-19T12:14:10;95717.28;;;22.41;100.00
11621;BME280;5866;49.094;11.900;2022-08-19T12:16:43;95707.72;;;22.17;100.00
11621;BME280;5866;49.094;11.900;2022-08-19T12:19:16;95713.22;;;22.77;100.00
11621;BME280;5866;49.094;11.900;2022-08-19T12:21:48;95715.63;;;22.57;100.00
11621;BME280;5866;49.094;11.900;2022-08-19T12:24:16;95723.72;;;22.73;100.00
11621;BME280;5866;49.094;11.900;2022-08-19T12:26:49;95716.78;;;22.61;100.00
11621;BME280;5866;49.094;11.900;2022-08-19T12:29:20;95720.63;;;22.48;100.00
11621;BME280;5866;49.094;11.900;2022-08-19T12:31:56;95719.97;;;22.41;100.00
11621;BME280;5866;49.094;11.900;2022-08-19T12:34:28;95723.38;;;22.15;100.00
11621;BME280;5866;49.094;11.900;2022-08-19T12:36:57;95725.47;;;22.46;100.00
11621;BME280;5866;49.094;11.900;2022-08-19T12:39:25;95717.66;;;22.83;100.00
11621;BME280;5866;49.094;11.900;2022-08-19T12:41:53;95721.25;;;23.10;100.00
11621;BME280;5866;49.094;11.900;2022-08-19T12:44:22;95722.91;;;22.56;100.00
11621;BME280;5866;49.094;11.900;2022-08-19T12:46:55;95719.34;;;22.18;100.00
11621;BME280;5866;49.094;11.900;2022-08-19T12:49:23;95720.97;;;22.02;100.00
11621;BME280;5866;49.094;11.900;2022-08-19T12:52:11;95721.28;;;21.89;100.00
11621;BME280;5866;49.094;11.900;2022-08-19T12:54:42;95715.91;;;22.22;100.00
11621;BME280;5866;49.094;11.900;2022-08-19T12:57:10;95719.94;;;21.86;100.00
11621;BME280;5866;49.094;11.900;2022-08-19T12:59:39;95714.38;;;21.93;100.00
11621;BME280;5866;49.094;11.900;2022-08-19T13:02:07;95716.56;;;21.96;100.00
11621;BME280;5866;49.094;11.900;2022-08-19T13:04:35;95723.94;;;22.17;100.00
11621;BME280;5866;49.094;11.900;2022-08-19T13:07:07;95726.06;;;21.70;100.00
11621;BME280;5866;49.094;11.900;2022-08-19T13:09:35;95738.28;;;21.73;100.00